| time (UTC) | temp F | wind direction | speed knots | gust knots | rain 1hr in | rain 24hr in | rain mn in | humidity % | barometer mb |
| 20260507143856 | 59 | 231 | 0.0 | 2.6 | 0.00 | 0.00 | 0.00 | 59 | 1015.5 |
| 20260507142841 | 59 | 254 | 0.0 | 2.6 | 0.00 | 0.00 | 0.00 | 58 | 1015.5 |
| 20260507141849 | 59 | 180 | 0.9 | 2.6 | 0.00 | 0.00 | 0.00 | 56 | 1015.5 |
| 20260507140910 | 59 | 251 | 0.9 | 2.6 | 0.00 | 0.00 | 0.00 | 59 | 1015.6 |
| 20260507135917 | 58 | 177 | 0.0 | 0.0 | 0.00 | 0.00 | 0.00 | 60 | 1015.7 |
| 20260507134933 | 58 | 176 | 0.0 | 0.0 | 0.00 | 0.00 | 0.00 | 59 | 1015.7 |
| 20260507133936 | 58 | 173 | 0.9 | 4.3 | 0.00 | 0.00 | 0.00 | 58 | 1015.7 |
| 20260507131819 | 60 | 266 | 0.9 | 5.2 | 0.00 | 0.00 | 0.00 | 56 | 1015.7 |
| 20260507130806 | 59 | 253 | 1.7 | 5.2 | 0.00 | 0.00 | 0.00 | 57 | 1015.8 |
| 20260507125819 | 60 | 142 | 1.7 | 6.1 | 0.00 | 0.00 | 0.00 | 56 | 1015.8 |
| 20260507123702 | 56 | 134 | 0.9 | 8.7 | 0.00 | 0.00 | 0.00 | 61 | 1015.8 |
| 20260507122652 | 56 | 188 | 1.7 | 8.7 | 0.00 | 0.00 | 0.00 | 63 | 1015.9 |
| 20260507121643 | 57 | 239 | 0.0 | 6.1 | 0.00 | 0.00 | 0.00 | 62 | 1015.9 |
| 20260507120611 | 56 | 244 | 1.7 | 6.1 | 0.00 | 0.00 | 0.00 | 63 | 1016.0 |
| 20260507115605 | 56 | 145 | 1.7 | 4.3 | 0.00 | 0.00 | 0.00 | 62 | 1016.1 |
| 20260507113525 | 58 | 111 | 3.5 | 8.7 | 0.00 | 0.00 | 0.00 | 59 | 1016.1 |
| 20260507112529 | 60 | 140 | 2.6 | 8.7 | 0.00 | 0.00 | 0.00 | 57 | 1016.1 |
| 20260507111512 | 59 | 215 | 3.5 | 8.7 | 0.00 | 0.00 | 0.00 | 61 | 1016.1 |
| 20260507110505 | 58 | 136 | 2.6 | 8.7 | 0.00 | 0.00 | 0.00 | 61 | 1016.2 |
| 20260507105442 | 58 | 144 | 3.5 | 7.8 | 0.00 | 0.00 | 0.00 | 61 | 1016.3 |
| 20260507104452 | 58 | 188 | 2.6 | 7.0 | 0.00 | 0.00 | 0.00 | 62 | 1016.3 |
| 20260507103510 | 58 | 155 | 2.6 | 7.0 | 0.00 | 0.00 | 0.00 | 61 | 1016.4 |
| 20260507102442 | 56 | 155 | 2.6 | 7.0 | 0.00 | 0.00 | 0.00 | 65 | 1016.4 |
| 20260507101452 | 55 | 136 | 1.7 | 7.0 | 0.00 | 0.00 | 0.00 | 65 | 1016.4 |
| 20260507100422 | 54 | 222 | 1.7 | 5.2 | 0.00 | 0.00 | 0.00 | 67 | 1016.4 |
| 20260507095425 | 54 | 191 | 2.6 | 7.0 | 0.00 | 0.00 | 0.00 | 69 | 1016.4 |
| 20260507094351 | 54 | 143 | 3.5 | 7.0 | 0.00 | 0.00 | 0.00 | 68 | 1016.5 |
| 20260507093321 | 54 | 127 | 3.5 | 7.0 | 0.00 | 0.00 | 0.00 | 68 | 1016.3 |
| 20260507092334 | 54 | 135 | 2.6 | 6.1 | 0.00 | 0.00 | 0.00 | 70 | 1016.3 |
| 20260507090134 | 53 | 147 | 3.5 | 6.1 | 0.00 | 0.00 | 0.00 | 70 | 1016.4 |
| 20260507085124 | 53 | 184 | 1.7 | 6.1 | 0.00 | 0.00 | 0.00 | 74 | 1016.4 |
| 20260507084120 | 52 | 184 | 0.9 | 4.3 | 0.00 | 0.00 | 0.00 | 73 | 1016.4 |
| 20260507083126 | 52 | 134 | 1.7 | 5.2 | 0.00 | 0.00 | 0.00 | 73 | 1016.4 |
| 20260507082059 | 52 | 169 | 2.6 | 7.0 | 0.00 | 0.00 | 0.00 | 72 | 1016.4 |
| 20260507081100 | 52 | 143 | 1.7 | 7.0 | 0.00 | 0.00 | 0.00 | 73 | 1016.4 |
| 20260507080122 | 52 | 159 | 2.6 | 7.0 | 0.00 | 0.00 | 0.00 | 75 | 1016.3 |
| 20260507075110 | 51 | 125 | 2.6 | 7.0 | 0.00 | 0.00 | 0.00 | 77 | 1016.3 |
| 20260507074103 | 50 | 169 | 1.7 | 6.1 | 0.00 | 0.00 | 0.00 | 80 | 1016.2 |
| 20260507073053 | 50 | 146 | 1.7 | 6.1 | 0.00 | 0.00 | 0.00 | 81 | 1016.1 |
| 20260507072115 | 49 | 150 | 1.7 | 6.1 | 0.00 | 0.00 | 0.00 | 80 | 1016.1 |
| 20260507071047 | 49 | 145 | 2.6 | 5.2 | 0.00 | 0.00 | 0.00 | 81 | 1016.0 |
| 20260507070048 | 48 | 136 | 2.6 | 5.2 | 0.00 | 0.00 | 0.00 | 83 | 1016.0 |
| 20260507065109 | 48 | 133 | 1.7 | 3.5 | 0.00 | 0.00 | 0.00 | 84 | 1016.0 |
| 20260507064127 | 48 | 147 | 1.7 | 3.5 | 0.00 | 0.00 | 0.00 | 86 | 1016.0 |
| 20260507061933 | 47 | 94 | 0.0 | 1.7 | 0.00 | 0.00 | 0.00 | 87 | 1016.0 |
| 20260507060925 | 47 | 62 | 0.0 | 0.0 | 0.00 | 0.01 | 0.00 | 87 | 1016.0 |
| 20260507055913 | 47 | 62 | 0.0 | 0.0 | 0.00 | 0.03 | 0.00 | 87 | 1015.9 |
| 20260507054925 | 47 | 61 | 0.0 | 0.0 | 0.00 | 0.03 | 0.00 | 87 | 1015.7 |
| 20260507053909 | 47 | 61 | 0.0 | 0.0 | 0.00 | 0.03 | 0.00 | 87 | 1015.7 |
| 20260507052853 | 46 | 61 | 0.0 | 0.0 | 0.00 | 0.03 | 0.00 | 87 | 1015.6 |
| 20260507051911 | 46 | 61 | 0.0 | 0.0 | 0.00 | 0.03 | 0.00 | 87 | 1015.5 |
| 20260507050902 | 46 | 61 | 0.0 | 0.0 | 0.00 | 0.03 | 0.00 | 87 | 1015.4 |
| 20260507044757 | 46 | 61 | 0.0 | 0.0 | 0.00 | 0.03 | 0.00 | 87 | 1015.4 |
| 20260507043754 | 46 | 61 | 0.0 | 0.0 | 0.00 | 0.03 | 0.00 | 87 | 1015.4 |
| 20260507042811 | 46 | 61 | 0.0 | 0.0 | 0.00 | 0.03 | 0.00 | 87 | 1015.3 |
| 20260507041816 | 46 | 61 | 0.0 | 0.0 | 0.00 | 0.03 | 0.00 | 87 | 1015.2 |
| 20260507040815 | 46 | 61 | 0.0 | 0.0 | 0.00 | 0.03 | 0.00 | 87 | 1015.2 |
| 20260507035828 | 46 | 61 | 0.0 | 0.0 | 0.00 | 0.03 | 0.00 | 87 | 1015.1 |
| 20260507034831 | 46 | 65 | 0.0 | 0.0 | 0.00 | 0.03 | 0.00 | 87 | 1015.2 |
| 20260507033839 | 46 | 65 | 0.0 | 0.0 | 0.00 | 0.03 | 0.00 | 87 | 1015.1 |
| 20260507032826 | 46 | 65 | 0.0 | 0.0 | 0.00 | 0.03 | 0.00 | 87 | 1015.1 |
| 20260507025422 | 46 | 65 | 0.0 | 0.0 | 0.00 | 0.03 | 0.00 | 86 | 1015.0 |
| 20260507024358 | 47 | 65 | 0.0 | 0.0 | 0.00 | 0.03 | 0.00 | 86 | 1014.9 |
| 20260507023340 | 47 | 65 | 0.0 | 0.0 | 0.00 | 0.03 | 0.00 | 86 | 1014.9 |
| 20260507022344 | 47 | 65 | 0.0 | 0.0 | 0.00 | 0.03 | 0.00 | 86 | 1014.9 |
| 20260507020156 | 47 | 65 | 0.0 | 0.0 | 0.00 | 0.03 | 0.00 | 85 | 1014.9 |
| 20260507014020 | 47 | 65 | 0.0 | 0.0 | 0.00 | 0.03 | 0.00 | 85 | 1014.8 |
| 20260507013011 | 47 | 65 | 0.0 | 0.0 | 0.00 | 0.03 | 0.00 | 85 | 1014.8 |
| 20260507012022 | 47 | 65 | 0.0 | 0.0 | 0.00 | 0.03 | 0.00 | 84 | 1014.8 |
| 20260507010949 | 48 | 65 | 0.0 | 0.0 | 0.00 | 0.03 | 0.00 | 85 | 1014.9 |
| 20260507005948 | 48 | 65 | 0.0 | 0.0 | 0.00 | 0.03 | 0.00 | 84 | 1014.9 |
| 20260507004956 | 48 | 65 | 0.0 | 0.0 | 0.00 | 0.03 | 0.00 | 84 | 1014.9 |
| 20260507004005 | 48 | 65 | 0.0 | 0.9 | 0.00 | 0.03 | 0.00 | 84 | 1014.9 |
| 20260507001836 | 48 | 65 | 0.0 | 0.0 | 0.00 | 0.03 | 0.00 | 83 | 1014.9 |
| 20260507000842 | 48 | 65 | 0.9 | 2.6 | 0.00 | 0.03 | 0.00 | 83 | 1015.0 |
| 20260506235840 | 48 | 63 | 0.9 | 4.3 | 0.00 | 0.03 | 0.00 | 83 | 1015.0 |
| 20260506233647 | 48 | 74 | 1.7 | 5.2 | 0.00 | 0.03 | 0.00 | 83 | 1015.0 |
| 20260506232707 | 48 | 94 | 1.7 | 5.2 | 0.00 | 0.03 | 0.00 | 83 | 1014.9 |
| 20260506231701 | 48 | 65 | 1.7 | 5.2 | 0.00 | 0.03 | 0.00 | 83 | 1014.9 |
| 20260506230659 | 48 | 69 | 1.7 | 5.2 | 0.00 | 0.03 | 0.00 | 83 | 1014.8 |
| 20260506225718 | 48 | 70 | 1.7 | 6.1 | 0.00 | 0.03 | 0.03 | 83 | 1014.9 |
| 20260506224655 | 48 | 87 | 1.7 | 6.1 | 0.00 | 0.03 | 0.03 | 83 | 1014.9 |
| 20260506223702 | 48 | 69 | 1.7 | 5.2 | 0.00 | 0.03 | 0.03 | 83 | 1015.0 |
| 20260506222723 | 48 | 55 | 1.7 | 5.2 | 0.00 | 0.03 | 0.03 | 83 | 1015.0 |
| 20260506221744 | 48 | 65 | 1.7 | 5.2 | 0.00 | 0.03 | 0.03 | 83 | 1014.9 |
| 20260506215629 | 48 | 61 | 1.7 | 6.1 | 0.00 | 0.03 | 0.03 | 83 | 1015.0 |
| 20260506213409 | 48 | 66 | 1.7 | 5.2 | 0.00 | 0.03 | 0.03 | 83 | 1014.8 |
| 20260506212412 | 48 | 82 | 2.6 | 7.0 | 0.00 | 0.03 | 0.03 | 83 | 1014.7 |
| 20260506211419 | 48 | 76 | 2.6 | 7.0 | 0.00 | 0.03 | 0.03 | 83 | 1014.6 |
| 20260506210349 | 48 | 57 | 2.6 | 7.0 | 0.00 | 0.03 | 0.03 | 83 | 1014.5 |
| 20260506205329 | 48 | 68 | 2.6 | 7.0 | 0.00 | 0.03 | 0.03 | 84 | 1014.5 |
| 20260506204343 | 48 | 86 | 2.6 | 7.0 | 0.00 | 0.03 | 0.03 | 84 | 1014.5 |
| 20260506203401 | 48 | 73 | 3.5 | 7.8 | 0.00 | 0.03 | 0.03 | 84 | 1014.5 |
| 20260506202331 | 48 | 70 | 3.5 | 7.8 | 0.00 | 0.03 | 0.03 | 84 | 1014.5 |
| 20260506201353 | 48 | 68 | 3.5 | 8.7 | 0.00 | 0.03 | 0.03 | 84 | 1014.4 |
| 20260506195206 | 48 | 38 | 3.5 | 8.7 | 0.00 | 0.03 | 0.03 | 85 | 1014.3 |
| 20260506194158 | 48 | 63 | 3.5 | 8.7 | 0.00 | 0.03 | 0.03 | 86 | 1014.2 |
| 20260506193153 | 48 | 49 | 2.6 | 7.0 | 0.00 | 0.03 | 0.03 | 86 | 1014.1 |
| 20260506190938 | 48 | 36 | 2.6 | 8.7 | 0.00 | 0.03 | 0.03 | 86 | 1014.0 |
| 20260506182537 | 48 | 53 | 2.6 | 8.7 | 0.00 | 0.03 | 0.03 | 87 | 1013.7 |
| 20260506181544 | 48 | 50 | 2.6 | 7.8 | 0.00 | 0.03 | 0.03 | 87 | 1013.6 |
| 20260506180520 | 48 | 49 | 2.6 | 7.0 | 0.00 | 0.03 | 0.03 | 87 | 1013.4 |
| 20260506175503 | 48 | 49 | 2.6 | 7.0 | 0.00 | 0.03 | 0.03 | 87 | 1013.3 |
| 20260506174447 | 48 | 65 | 1.7 | 8.7 | 0.00 | 0.03 | 0.03 | 87 | 1013.3 |
| 20260506173416 | 49 | 44 | 2.6 | 8.7 | 0.00 | 0.03 | 0.03 | 87 | 1013.3 |
| 20260506172348 | 49 | 22 | 2.6 | 7.0 | 0.00 | 0.03 | 0.03 | 87 | 1013.2 |
| 20260506171336 | 49 | 46 | 2.6 | 7.8 | 0.00 | 0.03 | 0.03 | 87 | 1013.2 |
| 20260506165232 | 49 | 67 | 4.3 | 9.6 | 0.00 | 0.03 | 0.03 | 86 | 1013.0 |
| 20260506164233 | 49 | 64 | 4.3 | 12.2 | 0.00 | 0.03 | 0.03 | 86 | 1013.0 |
| 20260506163227 | 50 | 69 | 7.0 | 12.2 | 0.00 | 0.03 | 0.03 | 86 | 1013.0 |
| 20260506161108 | 51 | 67 | 4.3 | 9.6 | 0.00 | 0.03 | 0.03 | 85 | 1013.0 |
| 20260506160113 | 51 | 38 | 4.3 | 12.2 | 0.00 | 0.03 | 0.03 | 85 | 1012.9 |
| 20260506155120 | 51 | 29 | 5.2 | 12.2 | 0.00 | 0.03 | 0.03 | 85 | 1012.9 |
| 20260506154051 | 52 | 40 | 4.3 | 11.3 | 0.00 | 0.03 | 0.03 | 84 | 1012.8 |
| 20260506153043 | 52 | 65 | 4.3 | 11.3 | 0.00 | 0.03 | 0.03 | 85 | 1012.7 |
| 20260506152037 | 52 | 44 | 4.3 | 9.6 | 0.00 | 0.03 | 0.03 | 85 | 1012.7 |
| 20260506151008 | 51 | 56 | 4.3 | 10.4 | 0.00 | 0.03 | 0.03 | 85 | 1012.7 |
| 20260506150032 | 52 | 27 | 4.3 | 10.4 | 0.00 | 0.03 | 0.03 | 86 | 1012.6 |